Time;durP1;ratioP1;P1;durP2;ratioP2;P2;SDS_P1;SDS_P2;PMS_P1;PMS_P2;Temp;Humidity;BMP_temperature;BMP_pressure;BME280_temperature;BME280_humidity;BME280_pressure;Samples;Min_cycle;Max_cycle;Signal;HPM_P1;HPM_P2
2022/11/21 00:01:21;;;;;;;61.95;29.75;;;;;;;27.84;75.14;100369.34;5089993;27;64205;-30
2022/11/21 00:03:53;;;;;;;54.38;26.23;;;;;;;28.31;75.09;100433.88;5078719;27;70357;-31
2022/11/21 00:06:25;;;;;;;49.70;25.92;;;;;;;28.31;76.18;100428.50;5082169;27;66205;-31
2022/11/21 00:08:57;;;;;;;47.30;23.83;;;;;;;28.38;75.89;100434.66;5080808;27;70410;-31
2022/11/21 00:11:28;;;;;;;43.65;21.52;;;;;;;28.40;76.04;100437.16;5086938;27;65281;-31
2022/11/21 00:13:59;;;;;;;30.95;18.77;;;;;;;28.26;76.63;100420.22;5085536;27;70215;-32
2022/11/21 00:16:30;;;;;;;33.38;17.42;;;;;;;28.33;76.52;100425.56;5086087;27;65594;-31
2022/11/21 00:19:02;;;;;;;22.13;15.55;;;;;;;28.41;76.80;100445.03;5080508;27;69355;-30
2022/11/21 00:21:33;;;;;;;22.35;14.60;;;;;;;28.45;76.78;100453.59;5083941;27;64714;-31
2022/11/21 00:24:05;;;;;;;24.05;13.70;;;;;;;28.49;76.61;100447.53;5091988;27;70155;-31
2022/11/21 00:26:37;;;;;;;22.35;14.18;;;;;;;27.57;77.14;100309.25;5086161;27;65630;-34
2022/11/21 00:29:09;;;;;;;20.73;12.90;;;;;;;28.45;76.78;100457.09;5085310;27;70139;-32
2022/11/21 00:31:40;;;;;;;16.23;11.43;;;;;;;28.54;73.57;100475.75;5081939;27;66043;-32
2022/11/21 00:34:11;;;;;;;11.23;10.10;;;;;;;28.46;72.81;100464.16;5083580;27;70576;-34
2022/11/21 00:36:42;;;;;;;11.63;10.40;;;;;;;28.56;72.60;100484.47;5085933;27;65996;-34
2022/11/21 00:39:13;;;;;;;12.73;9.47;;;;;;;28.45;72.18;100478.69;5082062;27;69901;-34
2022/11/21 00:41:45;;;;;;;11.85;9.40;;;;;;;28.43;71.70;100475.38;5080471;27;65458;-32
2022/11/21 00:44:16;;;;;;;;;;;;;;;28.25;73.80;100505.69;5082456;27;70390;-33
2022/11/21 00:46:47;;;;;;;10.65;8.88;;;;;;;28.57;71.78;100502.31;5080123;27;66549;-34
2022/11/21 00:49:18;;;;;;;13.17;8.07;;;;;;;28.59;70.90;100505.63;5082184;27;69997;-33
2022/11/21 00:51:49;;;;;;;8.80;8.00;;;;;;;28.57;71.11;100496.91;5084253;27;68028;-33
2022/11/21 00:54:20;;;;;;;8.35;7.57;;;;;;;28.57;70.36;100496.91;5082803;27;70029;-34
2022/11/21 00:56:51;;;;;;;8.48;7.78;;;;;;;28.60;70.79;100504.56;5082760;27;65478;-33
2022/11/21 00:59:22;;;;;;;8.48;7.72;;;;;;;28.65;70.07;100521.78;5083584;27;69512;-34
2022/11/21 01:01:55;;;;;;;8.25;7.50;;;;;;;28.20;69.76;100437.25;5083919;27;65992;-33
2022/11/21 01:04:31;;;;;;;8.82;8.02;;;;;;;28.29;69.36;100458.38;5090577;27;69777;-34
2022/11/21 01:07:03;;;;;;;7.80;7.00;;;;;;;28.56;70.15;100495.25;5080858;27;66165;-33
2022/11/21 01:09:34;;;;;;;7.63;7.10;;;;;;;28.70;69.44;100523.84;5089792;27;70155;-33
2022/11/21 01:12:06;;;;;;;9.65;7.63;;;;;;;28.68;69.81;100515.94;5091418;27;65785;-33
2022/11/21 01:14:37;;;;;;;7.93;6.97;;;;;;;28.69;69.82;100517.59;5087017;27;69962;-33
2022/11/21 01:17:08;;;;;;;8.00;7.40;;;;;;;28.66;69.40;100511.81;5091995;27;65866;-32
2022/11/21 01:19:39;;;;;;;8.57;7.72;;;;;;;28.66;69.03;100522.59;5094772;27;70333;-34
2022/11/21 01:22:10;;;;;;;10.20;7.57;;;;;;;28.73;69.11;100529.63;5082342;27;65894;-33
2022/11/21 01:24:41;;;;;;;7.97;7.22;;;;;;;28.74;68.97;100527.75;5081669;27;70172;-33
2022/11/21 01:27:13;;;;;;;12.05;6.78;;;;;;;28.74;69.35;100530.47;5087620;27;66093;-34
2022/11/21 01:29:44;;;;;;;8.13;7.45;;;;;;;28.77;68.80;100531.91;5082866;27;70379;-33
2022/11/21 01:32:15;;;;;;;9.70;7.65;;;;;;;28.79;69.04;100538.75;5089257;27;65540;-33
2022/11/21 01:34:46;;;;;;;8.40;7.60;;;;;;;28.52;69.08;100495.66;5084732;27;70261;-33
2022/11/21 01:37:18;;;;;;;7.85;7.07;;;;;;;28.79;69.10;100544.16;5080285;27;65523;-34
2022/11/21 01:39:49;;;;;;;8.40;7.57;;;;;;;28.80;68.99;100551.19;5089653;27;71317;-35
2022/11/21 01:42:20;;;;;;;9.27;7.07;;;;;;;28.79;68.48;100538.75;5088432;27;65553;-36
2022/11/21 01:44:53;;;;;;;7.78;7.18;;;;;;;28.84;68.96;100544.34;5087745;27;69866;-33
2022/11/21 01:47:24;;;;;;;7.55;6.88;;;;;;;28.82;68.58;100537.50;5090572;27;66728;-34
2022/11/21 01:49:55;;;;;;;8.00;7.28;;;;;;;28.66;68.99;100517.19;5081276;27;70049;-35
2022/11/21 01:52:31;;;;;;;8.13;7.43;;;;;;;28.83;68.54;100548.06;5091723;27;66322;-33
2022/11/21 01:55:08;;;;;;;8.07;7.32;;;;;;;28.86;68.65;100539.56;5082146;27;70426;-34
2022/11/21 01:57:48;;;;;;;8.10;7.40;;;;;;;28.58;68.36;100487.75;5083813;27;66495;-33
2022/11/21 02:00:33;;;;;;;7.68;6.97;;;;;;;28.82;68.31;100522.13;5087487;27;69396;-33
2022/11/21 02:03:09;;;;;;;8.02;7.28;;;;;;;28.38;68.63;100450.84;5082146;27;66728;-36
2022/11/21 02:05:41;;;;;;;6.97;6.38;;;;;;;28.88;68.52;100537.44;5083772;27;70335;-33
2022/11/21 02:08:20;;;;;;;7.70;7.05;;;;;;;28.76;68.42;100514.06;5084667;27;65154;-34
2022/11/21 02:11:11;;;;;;;7.50;6.80;;;;;;;28.88;68.63;100542.84;5080866;27;70040;-34
2022/11/21 02:13:42;;;;;;;7.28;6.68;;;;;;;28.90;68.68;100538.06;5083042;27;66388;-35
2022/11/21 02:16:14;;;;;;;;;;;;;;;28.58;69.72;100541.72;5085036;27;70331;-34
2022/11/21 02:18:45;;;;;;;7.82;7.05;;;;;;;28.88;68.31;100542.84;5077230;27;66019;-34
2022/11/21 02:21:40;;;;;;;7.72;7.05;;;;;;;28.95;68.13;100538.25;5078778;27;70231;-34
2022/11/21 02:24:46;;;;;;;7.75;7.03;;;;;;;28.90;68.29;100545.34;5081230;27;66904;-33
2022/11/21 02:27:17;;;;;;;7.63;6.93;;;;;;;28.94;68.09;100535.75;5081244;27;69608;-34
2022/11/21 02:29:49;;;;;;;7.80;6.50;;;;;;;28.93;68.32;100539.50;5082212;27;65559;-33
2022/11/21 02:32:24;;;;;;;7.85;7.15;;;;;;;28.67;68.53;100486.50;5080845;27;70858;-33
2022/11/21 02:34:55;;;;;;;7.93;7.13;;;;;;;28.82;68.07;100521.28;5086044;27;65578;-33
2022/11/21 02:37:28;;;;;;;7.60;7.10;;;;;;;28.91;68.62;100542.41;5082114;27;69195;-34
2022/11/21 02:40:06;;;;;;;7.20;6.57;;;;;;;28.56;68.33;100481.78;5079160;27;65746;-34
2022/11/21 02:43:01;;;;;;;8.27;6.55;;;;;;;28.92;68.73;100562.16;5080039;27;69597;-33
2022/11/21 02:45:40;;;;;;;7.38;6.78;;;;;;;28.54;68.14;100486.53;5070441;27;66553;-35
2022/11/21 02:48:12;;;;;;;8.10;7.13;;;;;;;29.04;68.50;100565.88;5080449;27;70214;-33
2022/11/21 02:50:46;;;;;;;9.32;6.93;;;;;;;29.04;68.02;100559.66;5089569;27;66778;-33
2022/11/21 02:53:18;;;;;;;7.55;6.95;;;;;;;28.84;68.34;100525.44;5063399;28;70443;-33
2022/11/21 02:55:50;;;;;;;7.82;6.97;;;;;;;29.05;68.30;100564.81;5085485;27;65489;-33
2022/11/21 02:58:22;;;;;;;8.20;6.78;;;;;;;28.99;67.90;100548.63;5089901;27;70525;-33
2022/11/21 03:00:54;;;;;;;8.50;6.93;;;;;;;29.10;68.34;100572.28;5087500;27;66348;-35
2022/11/21 03:03:25;;;;;;;8.80;7.35;;;;;;;29.12;68.40;100581.00;5084571;27;71059;-35
2022/11/21 03:05:56;;;;;;;11.25;8.13;;;;;;;29.07;68.62;100570.00;5084995;27;66261;-34
2022/11/21 03:08:28;;;;;;;8.43;7.40;;;;;;;29.14;68.29;100573.50;5085608;27;70259;-33
2022/11/21 03:10:59;;;;;;;7.85;6.60;;;;;;;29.13;67.75;100571.84;5079929;27;66313;-33
2022/11/21 03:13:31;;;;;;;8.15;6.93;;;;;;;29.12;67.99;100571.03;5084364;27;69819;-33
2022/11/21 03:16:02;;;;;;;7.70;7.07;;;;;;;28.96;68.14;100541.78;5078979;27;66387;-34
2022/11/21 03:18:33;;;;;;;8.75;7.40;;;;;;;29.00;67.58;100544.88;5080929;27;69769;-34
2022/11/21 03:21:04;;;;;;;8.17;7.37;;;;;;;29.21;67.51;100574.28;5093846;27;66276;-33
2022/11/21 03:23:36;;;;;;;7.43;6.80;;;;;;;29.12;67.39;100554.81;5086101;27;70749;-33
2022/11/21 03:26:07;;;;;;;9.18;7.22;;;;;;;29.18;67.63;100555.81;5081838;27;65772;-35
2022/11/21 03:28:40;;;;;;;7.72;7.00;;;;;;;29.14;67.92;100541.06;5084233;27;69744;-34
2022/11/21 03:31:12;;;;;;;8.10;7.35;;;;;;;29.17;67.21;100540.69;5083993;27;65804;-33
2022/11/21 03:33:43;;;;;;;7.55;6.95;;;;;;;29.06;67.01;100514.31;5093088;27;70286;-33
2022/11/21 03:36:14;;;;;;;8.52;6.88;;;;;;;29.28;67.43;100545.38;5080825;27;66117;-34
2022/11/21 03:38:45;;;;;;;7.35;6.70;;;;;;;29.24;66.91;100529.81;5081367;27;70022;-34
2022/11/21 03:41:28;;;;;;;10.50;6.85;;;;;;;29.30;66.98;100540.56;5084291;27;65405;-35
2022/11/21 03:44:03;;;;;;;8.95;6.90;;;;;;;29.26;67.28;100515.03;5082818;27;70198;-32
2022/11/21 03:46:37;;;;;;;7.63;6.88;;;;;;;29.38;66.78;100531.38;5085180;27;66346;-33
2022/11/21 03:49:08;;;;;;;7.97;7.28;;;;;;;29.27;66.94;100511.28;5083262;27;69595;-34
2022/11/21 03:51:40;;;;;;;6.93;5.97;;;;;;;29.31;67.16;100504.41;5091766;27;65524;-34
2022/11/21 03:54:11;;;;;;;8.25;7.03;;;;;;;29.31;66.83;100504.41;5082061;27;70388;-36
2022/11/21 03:56:42;;;;;;;8.50;6.70;;;;;;;29.40;66.73;100513.91;5083703;27;65416;-33
2022/11/21 03:59:14;;;;;;;9.63;7.22;;;;;;;29.38;67.42;100505.19;5079951;27;68408;-34
2022/11/21 04:01:45;;;;;;;8.40;6.60;;;;;;;29.20;66.60;100475.41;5086636;27;66739;-33
2022/11/21 04:04:17;;;;;;;9.70;7.03;;;;;;;29.38;67.23;100494.38;5082626;27;70681;-34
2022/11/21 04:06:48;;;;;;;10.10;7.70;;;;;;;29.46;67.07;100505.97;5082315;27;66309;-33
2022/11/21 04:09:19;;;;;;;12.10;6.90;;;;;;;29.47;66.78;100513.03;5082641;27;70703;-32
2022/11/21 04:11:50;;;;;;;11.20;7.63;;;;;;;29.42;66.51;100502.03;5092771;27;67373;-33
2022/11/21 04:14:21;;;;;;;8.15;6.75;;;;;;;29.51;66.64;100503.44;5085834;27;69594;-37
2022/11/21 04:16:52;;;;;;;8.20;7.45;;;;;;;29.53;66.75;100506.72;5081912;27;66552;-34
2022/11/21 04:19:24;;;;;;;11.97;7.00;;;;;;;29.50;66.33;100504.47;5086811;27;69971;-34
2022/11/21 04:21:55;;;;;;;9.43;6.80;;;;;;;29.56;66.33;100511.69;5085380;27;66850;-33
2022/11/21 04:24:26;;;;;;;9.02;8.10;;;;;;;29.56;66.61;100506.28;5081889;27;70281;-33
2022/11/21 04:26:58;;;;;;;8.43;7.13;;;;;;;29.57;66.28;100507.97;5095380;27;66230;-35
2022/11/21 04:29:29;;;;;;;11.82;7.55;;;;;;;29.60;66.67;100507.53;5080838;27;69182;-35
2022/11/21 04:32:00;;;;;;;8.10;7.30;;;;;;;29.61;66.05;100496.50;5089408;27;66331;-35
2022/11/21 04:34:31;;;;;;;7.35;6.75;;;;;;;29.60;66.52;100494.81;5096653;27;70877;-37
2022/11/21 04:37:02;;;;;;;8.48;6.65;;;;;;;29.64;66.37;100500.63;5089239;27;67380;-36
2022/11/21 04:39:40;;;;;;;8.40;7.20;;;;;;;29.60;66.42;100486.72;5094203;27;70467;-35
2022/11/21 04:42:11;;;;;;;9.50;6.93;;;;;;;29.66;66.38;100492.31;5084534;27;65593;-36
2022/11/21 04:44:42;;;;;;;9.65;7.95;;;;;;;29.15;66.35;100418.50;5087700;27;69370;-34
2022/11/21 04:47:13;;;;;;;8.40;7.55;;;;;;;29.67;65.82;100492.13;5081235;27;65643;-34
2022/11/21 04:49:44;;;;;;;8.88;7.30;;;;;;;29.70;65.80;100486.25;5083850;27;70436;-36
2022/11/21 04:52:15;;;;;;;7.37;6.70;;;;;;;29.60;66.12;100464.28;5081153;27;66251;-35
2022/11/21 04:54:47;;;;;;;9.27;7.10;;;;;;;29.71;66.29;100471.69;5081061;27;69638;-38
2022/11/21 04:57:18;;;;;;;8.67;7.33;;;;;;;29.59;66.09;100449.94;5080297;27;66005;-33
2022/11/21 04:59:49;;;;;;;8.80;6.97;;;;;;;29.69;66.26;100456.72;5087472;27;70425;-34
2022/11/21 05:02:20;;;;;;;10.13;7.68;;;;;;;29.77;66.31;100459.16;5096781;27;66137;-34
2022/11/21 05:04:51;;;;;;;7.30;6.60;;;;;;;29.77;65.88;100454.56;5090382;27;69479;-34
2022/11/21 05:07:22;;;;;;;7.27;6.57;;;;;;;29.69;66.19;100437.81;5081513;27;65483;-37
2022/11/21 05:09:54;;;;;;;8.23;7.45;;;;;;;29.80;66.05;100448.72;5085125;27;69271;-35
2022/11/21 05:15:14;;;;;;;7.20;6.50;;;;;;;29.77;66.04;100424.00;5081758;27;70338;-35
2022/11/21 05:17:52;;;;;;;7.25;6.55;;;;;;;29.86;65.49;100429.94;5068878;27;65427;-36
2022/11/21 05:20:24;;;;;;;8.13;6.95;;;;;;;29.86;65.49;100424.53;5090969;27;69286;-38
2022/11/21 05:22:55;;;;;;;13.07;7.27;;;;;;;29.82;65.47;100414.19;5081068;27;66495;-34
2022/11/21 05:25:26;;;;;;;7.13;6.53;;;;;;;29.83;65.23;100410.41;5089567;27;69255;-36
2022/11/21 05:27:57;;;;;;;7.77;7.00;;;;;;;29.89;65.32;100413.28;5089132;27;65789;-35
2022/11/21 05:30:29;;;;;;;19.07;7.07;;;;;;;29.91;65.82;100416.59;5096222;27;69439;-37
2022/11/21 05:33:00;;;;;;;7.13;6.43;;;;;;;29.81;65.66;100396.31;5082971;27;66568;-35
2022/11/21 05:35:31;;;;;;;7.60;6.67;;;;;;;29.91;65.44;100406.59;5083555;27;69981;-37
2022/11/21 05:38:07;;;;;;;9.65;7.35;;;;;;;29.96;65.38;100405.94;5077922;27;66016;-36
2022/11/21 05:40:38;;;;;;;9.30;6.47;;;;;;;29.97;65.25;100394.03;5087003;27;70001;-33
2022/11/21 05:46:01;;;;;;;12.98;7.63;;;;;;;29.98;65.31;100382.19;5083938;27;69280;-36
2022/11/21 05:48:35;;;;;;;9.80;8.07;;;;;;;29.92;65.14;100369.56;5084272;27;66028;-35
2022/11/21 05:51:06;;;;;;;9.13;7.30;;;;;;;30.01;65.21;100384.44;5079192;27;69233;-35
2022/11/21 05:53:38;;;;;;;8.18;6.90;;;;;;;30.00;65.10;100378.19;5079704;27;66546;-33
2022/11/21 05:56:13;;;;;;;7.35;6.68;;;;;;;30.02;64.74;100386.09;5081098;27;70176;-34
2022/11/21 05:58:45;;;;;;;9.65;7.03;;;;;;;30.03;64.89;100383.16;5085201;27;66399;-35
2022/11/21 06:03:25;;;;;;;9.63;7.45;;;;;;;30.02;64.69;100365.28;5077842;27;69914;-35
2022/11/21 06:04:09;;;;;;;10.52;6.80;;;;;;;30.03;64.96;100364.22;5087561;27;66560;-34
2022/11/21 06:06:40;;;;;;;8.18;7.13;;;;;;;30.05;64.92;100361.28;5085695;27;69600;-34
2022/11/21 06:09:11;;;;;;;10.43;7.17;;;;;;;30.05;64.83;100350.47;5087196;27;66190;-34
2022/11/21 06:11:42;;;;;;;7.77;6.93;;;;;;;29.98;65.00;100336.22;5088329;27;70137;-33
2022/11/21 06:14:13;;;;;;;7.93;7.13;;;;;;;30.05;65.05;100342.34;5089893;27;65523;-34
2022/11/21 06:16:44;;;;;;;15.38;7.18;;;;;;;30.06;64.53;100338.59;5080365;27;70083;-33
2022/11/21 06:19:16;;;;;;;9.25;7.30;;;;;;;29.82;64.84;100295.22;5085451;27;66540;-32
2022/11/21 06:21:47;;;;;;;9.43;6.57;;;;;;;30.04;65.16;100328.00;5088960;27;70612;-32
2022/11/21 06:24:19;;;;;;;10.35;7.10;;;;;;;30.05;64.66;100321.53;5080795;27;66337;-33
2022/11/21 06:26:54;;;;;;;8.60;7.55;;;;;;;30.05;64.58;100328.84;5077191;27;69295;-33
2022/11/21 06:29:25;;;;;;;8.10;6.47;;;;;;;29.93;64.54;100300.91;5083882;27;65744;-35
2022/11/21 06:31:57;;;;;;;8.00;7.20;;;;;;;30.05;64.79;100320.72;5096694;27;69500;-33
2022/11/21 06:34:28;;;;;;;7.90;6.93;;;;;;;30.06;65.25;100322.34;5085226;27;65920;-33
2022/11/21 06:36:59;;;;;;;8.13;6.30;;;;;;;29.90;64.87;100290.56;5080221;27;68677;-34
2022/11/21 06:39:30;;;;;;;7.43;6.83;;;;;;;30.06;64.54;100322.34;5080959;27;66348;-34
2022/11/21 06:42:02;;;;;;;9.10;7.10;;;;;;;30.07;65.04;100318.63;5087376;27;69759;-35
2022/11/21 06:44:33;;;;;;;8.60;7.13;;;;;;;30.04;65.04;100309.06;5079195;27;67079;-34
2022/11/21 06:47:05;;;;;;;7.63;6.65;;;;;;;30.05;64.93;100315.31;5086100;27;69806;-33
2022/11/21 06:49:36;;;;;;;8.00;6.83;;;;;;;30.09;65.02;100310.25;5080918;27;66282;-35
2022/11/21 06:52:07;;;;;;;9.77;7.20;;;;;;;30.08;64.96;100301.31;5082168;27;69521;-37
2022/11/21 06:54:38;;;;;;;7.23;6.60;;;;;;;30.09;64.66;100299.44;5088036;27;65983;-33
2022/11/21 06:57:09;;;;;;;7.93;6.80;;;;;;;30.09;64.65;100289.47;5083744;27;70113;-34
2022/11/21 06:59:41;;;;;;;7.75;7.15;;;;;;;30.07;64.74;100286.16;5082619;27;65776;-34
2022/11/21 07:02:15;;;;;;;8.27;7.47;;;;;;;30.10;64.33;100285.69;5081387;27;69736;-34
2022/11/21 07:04:46;;;;;;;13.02;7.43;;;;;;;30.02;64.86;100265.19;5072790;27;64404;-33
2022/11/21 07:07:17;;;;;;;10.43;7.63;;;;;;;30.12;64.79;100278.19;5084151;27;68685;-34
2022/11/21 07:09:49;;;;;;;9.23;7.15;;;;;;;30.12;64.55;100283.59;5084756;27;65231;-35
2022/11/21 07:15:10;;;;;;;14.05;8.07;;;;;;;30.13;65.02;100279.00;5081542;27;66201;-33
2022/11/21 07:17:41;;;;;;;9.75;8.77;;;;;;;30.11;65.01;100271.09;5084383;27;69479;-33
2022/11/21 07:20:12;;;;;;;14.73;8.70;;;;;;;30.14;64.49;100280.66;5081822;27;65394;-34
2022/11/21 07:22:43;;;;;;;9.27;8.47;;;;;;;30.15;64.77;100271.50;5085160;27;69523;-34
2022/11/21 07:25:14;;;;;;;9.07;8.48;;;;;;;30.15;64.59;100272.31;5085014;27;65643;-34
2022/11/21 07:27:45;;;;;;;11.40;9.47;;;;;;;30.15;64.74;100266.09;5086832;27;70220;-34
2022/11/21 07:30:17;;;;;;;9.55;8.65;;;;;;;30.12;64.46;100261.97;5084681;27;66216;-37
2022/11/21 07:32:54;;;;;;;8.73;8.00;;;;;;;30.17;64.96;100263.97;5082496;27;70179;-37
2022/11/21 07:35:25;;;;;;;12.00;9.13;;;;;;;30.18;64.59;100258.31;5081904;27;66816;-37
2022/11/21 07:37:56;;;;;;;10.17;9.03;;;;;;;30.17;64.57;100259.41;5083530;27;69384;-37
2022/11/21 07:40:28;;;;;;;;;;;;;;;29.87;65.12;100256.69;5085020;27;66257;-33
2022/11/21 07:43:03;;;;;;;11.35;8.77;;;;;;;29.77;64.39;100189.63;5081577;27;70464;-37
2022/11/21 07:45:39;;;;;;;13.05;9.20;;;;;;;30.19;64.56;100259.97;5083097;27;66258;-34
2022/11/21 07:48:11;;;;;;;9.70;8.80;;;;;;;30.20;64.46;100252.66;5098181;27;70064;-34
2022/11/21 07:50:42;;;;;;;12.02;9.07;;;;;;;30.22;64.40;100259.53;5094966;27;65786;-33
2022/11/21 07:53:14;;;;;;;11.53;8.70;;;;;;;30.16;64.63;100246.91;5089434;27;70057;-37
2022/11/21 07:55:45;;;;;;;;;;;;;;;29.90;65.12;100252.72;5081596;27;66639;-34
2022/11/21 07:58:17;;;;;;;10.23;8.93;;;;;;;30.20;65.02;100253.53;5091058;27;69921;-34
2022/11/21 08:00:48;;;;;;;10.82;9.18;;;;;;;30.21;64.71;100252.47;5089066;27;66694;-33
2022/11/21 08:03:19;;;;;;;11.07;10.17;;;;;;;30.16;64.46;100241.50;5080270;27;70220;-34
2022/11/21 08:05:50;;;;;;;12.10;9.98;;;;;;;30.16;64.62;100240.69;5074668;27;66058;-34
2022/11/21 08:08:21;;;;;;;8.60;7.88;;;;;;;30.23;65.05;100253.09;5094404;27;70521;-35
2022/11/21 08:10:53;;;;;;;12.03;9.77;;;;;;;30.25;64.92;100252.84;5093210;27;66454;-34
2022/11/21 08:13:24;;;;;;;10.93;9.15;;;;;;;30.21;64.68;100251.63;5092777;27;70215;-34
2022/11/21 08:15:55;;;;;;;10.50;9.52;;;;;;;30.23;64.77;100253.09;5086229;27;66003;-35
2022/11/21 08:18:26;;;;;;;9.50;8.65;;;;;;;30.26;65.04;100258.03;5082460;27;70253;-34
2022/11/21 08:21:01;;;;;;;13.05;9.70;;;;;;;30.11;64.45;100232.44;5085937;27;65550;-33
2022/11/21 08:23:32;;;;;;;12.70;9.73;;;;;;;30.27;64.94;100264.25;5085128;27;70079;-34
2022/11/21 08:26:03;;;;;;;11.02;9.35;;;;;;;30.25;64.58;100266.38;5085094;27;66111;-34
2022/11/21 08:28:34;;;;;;;10.17;9.37;;;;;;;30.22;64.63;100262.25;5092796;27;70559;-34
2022/11/21 08:31:06;;;;;;;10.57;9.00;;;;;;;30.27;64.59;100265.09;5100383;27;65963;-34
2022/11/21 08:33:37;;;;;;;11.07;10.05;;;;;;;30.28;65.25;100261.34;5082193;27;71912;-33
2022/11/21 08:36:09;;;;;;;10.87;9.93;;;;;;;30.28;64.77;100258.63;5082464;27;65356;-33
2022/11/21 08:38:40;;;;;;;10.80;9.90;;;;;;;30.28;64.96;100263.19;5088848;27;70108;-34
2022/11/21 08:44:02;;;;;;;10.70;9.65;;;;;;;30.31;64.63;100253.78;5085771;27;69727;-34
2022/11/21 08:46:36;;;;;;;10.35;9.50;;;;;;;30.30;64.50;100247.56;5086227;27;66685;-36
2022/11/21 08:49:08;;;;;;;10.52;9.48;;;;;;;30.30;65.03;100252.16;5082860;27;70740;-37
2022/11/21 08:51:39;;;;;;;13.82;9.90;;;;;;;30.31;65.05;100254.63;5083220;27;65273;-34
2022/11/21 08:54:10;;;;;;;10.53;9.27;;;;;;;30.27;65.12;100251.56;5081121;27;69825;-37
2022/11/21 08:56:41;;;;;;;22.77;9.77;;;;;;;30.21;64.91;100243.53;5086092;27;65613;-35
2022/11/21 08:59:13;;;;;;;25.42;10.57;;;;;;;30.23;64.68;100247.69;5086193;27;68727;-34
2022/11/21 09:01:44;;;;;;;15.60;9.70;;;;;;;30.20;65.16;100240.00;5097380;27;65786;-33
2022/11/21 09:04:15;;;;;;;17.73;10.63;;;;;;;30.32;65.08;100266.28;5083581;27;69802;-35
2022/11/21 09:06:46;;;;;;;15.17;10.57;;;;;;;30.33;64.91;100267.94;5092008;27;65409;-34
2022/11/21 09:09:18;;;;;;;10.90;9.32;;;;;;;29.82;64.76;100192.47;5089059;27;70457;-34
2022/11/21 09:11:54;;;;;;;10.63;9.55;;;;;;;30.33;64.71;100267.94;5085847;27;65413;-35
2022/11/21 09:20:04;;;;;;;11.73;10.48;;;;;;;30.27;65.21;100269.69;5093418;27;69180;-35
2022/11/21 09:22:35;;;;;;;;;;;;;;;30.00;65.44;100280.81;5084690;27;66840;-34
2022/11/21 09:25:07;;;;;;;10.85;9.85;;;;;;;30.28;64.83;100274.88;5080554;27;70724;-35
2022/11/21 09:27:38;;;;;;;14.90;10.32;;;;;;;30.27;65.18;100281.31;5081053;27;65536;-33
2022/11/21 09:30:09;;;;;;;14.93;9.77;;;;;;;30.31;65.22;100286.25;5082908;27;72167;-36
2022/11/21 09:32:41;;;;;;;14.25;10.77;;;;;;;30.28;65.02;100282.13;5081573;27;65127;-36
2022/11/21 09:35:12;;;;;;;17.10;10.40;;;;;;;30.32;65.26;100294.16;5089388;27;70486;-36
2022/11/21 09:37:43;;;;;;;20.07;9.87;;;;;;;30.28;64.95;100282.13;5062807;27;66381;-34
2022/11/21 09:40:16;;;;;;;16.38;10.68;;;;;;;30.32;65.26;100288.75;5082888;27;70416;-34
2022/11/21 09:43:03;;;;;;;14.63;10.38;;;;;;;30.25;64.89;100296.94;5090663;27;65283;-34
2022/11/21 09:45:56;;;;;;;16.73;10.65;;;;;;;30.32;64.75;100298.75;5080125;27;69873;-34
2022/11/21 09:48:51;;;;;;;14.57;10.65;;;;;;;30.22;65.11;100294.69;5088136;27;65045;-37
2022/11/21 09:51:23;;;;;;;17.35;10.55;;;;;;;30.32;65.34;100298.75;5076972;27;69185;-35
2022/11/21 09:54:01;;;;;;;17.23;10.32;;;;;;;30.31;65.03;100297.91;5091118;27;66109;-35
2022/11/21 09:56:38;;;;;;;15.88;10.68;;;;;;;30.30;65.03;100295.44;5088786;27;69518;-34
2022/11/21 09:59:33;;;;;;;19.05;10.60;;;;;;;30.30;65.01;100300.84;5079006;27;65386;-34
2022/11/21 10:02:30;;;;;;;14.27;10.40;;;;;;;30.16;65.03;100300.19;5087649;27;69583;-35
2022/11/21 10:05:02;;;;;;;21.60;10.70;;;;;;;30.32;65.52;100298.75;5085834;27;66582;-33
2022/11/21 10:07:36;;;;;;;21.93;12.03;;;;;;;30.19;66.70;100283.50;5080850;27;69424;-35
2022/11/21 10:10:43;;;;;;;16.90;11.70;;;;;;;30.25;67.00;100307.78;5086485;27;66323;-35
2022/11/21 10:13:29;;;;;;;16.70;11.80;;;;;;;30.30;67.63;100319.78;5084495;27;70355;-34
2022/11/21 10:16:35;;;;;;;24.27;11.23;;;;;;;29.79;67.29;100247.00;5085588;27;66261;-34
2022/11/21 10:19:21;;;;;;;26.02;12.02;;;;;;;29.78;67.53;100245.38;5083316;27;70049;-36
2022/11/21 10:22:04;;;;;;;14.30;12.23;;;;;;;30.35;67.34;100331.59;5084726;27;65157;-33
2022/11/21 10:24:50;;;;;;;17.67;11.93;;;;;;;30.37;66.83;100329.47;5083273;27;69891;-35
2022/11/21 10:27:42;;;;;;;18.05;11.85;;;;;;;29.81;67.16;100254.88;5085255;27;64761;-35
2022/11/21 10:30:19;;;;;;;17.80;11.60;;;;;;;29.80;67.21;100243.25;5093373;27;69547;-34
2022/11/21 10:33:03;;;;;;;17.00;11.55;;;;;;;30.25;66.93;100321.28;5086587;27;66448;-33
2022/11/21 10:35:43;;;;;;;18.45;12.90;;;;;;;30.38;67.32;100325.72;5087627;27;70111;-33
2022/11/21 10:38:25;;;;;;;21.20;12.30;;;;;;;29.95;67.68;100255.53;5089019;27;67143;-34
2022/11/21 10:41:11;;;;;;;;;;;;;;;30.06;68.95;100338.59;5086826;27;69267;-32
2022/11/21 10:47:00;;;;;;;19.05;12.63;;;;;;;29.90;67.39;100253.53;5090134;27;69559;-34
2022/11/21 10:49:33;;;;;;;18.23;13.50;;;;;;;29.95;67.46;100256.38;5087398;27;65800;-33
2022/11/21 10:52:06;;;;;;;17.40;13.20;;;;;;;30.35;68.35;100326.16;5086496;27;70237;-34
2022/11/21 10:55:02;;;;;;;21.35;12.63;;;;;;;30.26;68.47;100339.19;5094656;27;65497;-33
2022/11/21 10:57:39;;;;;;;16.60;12.88;;;;;;;30.30;68.22;100331.44;5083504;27;68944;-35
2022/11/21 11:00:22;;;;;;;21.67;12.07;;;;;;;29.92;68.24;100275.75;5089365;27;66649;-34
2022/11/21 11:03:03;;;;;;;15.57;13.35;;;;;;;30.37;68.64;100355.69;5087625;27;69456;-34
2022/11/21 11:05:40;;;;;;;21.52;13.82;;;;;;;30.22;68.34;100323.66;5090757;27;67781;-36
2022/11/21 11:08:13;;;;;;;16.75;13.25;;;;;;;29.97;68.45;100294.81;5092307;27;69993;-37
2022/11/21 11:11:00;;;;;;;20.20;13.57;;;;;;;30.36;68.39;100354.06;5091858;27;65815;-33
2022/11/21 11:13:33;;;;;;;18.50;13.40;;;;;;;30.35;68.72;100357.81;5090734;27;70263;-34
2022/11/21 11:16:17;;;;;;;17.02;13.50;;;;;;;30.36;68.76;100360.28;5089012;27;65691;-35
2022/11/21 11:18:58;;;;;;;21.27;13.40;;;;;;;30.33;69.58;100359.91;5083567;27;69468;-35
2022/11/21 11:21:38;;;;;;;17.17;13.45;;;;;;;30.32;69.43;100369.09;5087607;27;65967;-34
2022/11/21 11:24:09;;;;;;;22.98;14.00;;;;;;;30.35;69.31;100363.22;5081963;27;69792;-33
2022/11/21 11:26:46;;;;;;;17.25;14.07;;;;;;;30.32;68.92;100369.09;5082226;27;67550;-33
2022/11/21 11:29:21;;;;;;;15.07;13.02;;;;;;;30.34;69.11;100377.78;5069996;27;70420;-35
2022/11/21 11:32:19;;;;;;;18.40;13.85;;;;;;;29.88;69.46;100325.09;5049975;28;64217;-34
2022/11/21 11:34:57;;;;;;;21.35;13.05;;;;;;;30.33;69.15;100387.78;5065014;27;70017;-33
2022/11/21 11:37:41;;;;;;;16.95;13.73;;;;;;;30.23;69.42;100385.66;5084663;27;65787;-34
2022/11/21 11:40:18;;;;;;;20.05;15.50;;;;;;;30.35;69.24;100395.69;5088867;27;68577;-35
2022/11/21 11:49:09;;;;;;;87.18;64.90;;;;;;;30.36;70.10;100419.00;5085471;27;65606;-35
2022/11/21 11:52:02;;;;;;;99.15;67.15;;;;;;;30.33;70.41;100424.84;5069905;27;69920;-34
2022/11/21 11:54:48;;;;;;;104.22;79.70;;;;;;;30.32;69.81;100434.03;5091017;27;66166;-36
2022/11/21 11:57:21;;;;;;;97.57;71.95;;;;;;;30.34;70.25;100415.69;5086941;27;69288;-38
2022/11/21 12:00:23;;;;;;;99.82;77.20;;;;;;;30.24;70.74;100436.00;5088801;27;66418;-36
2022/11/21 12:03:03;;;;;;;93.18;74.95;;;;;;;30.34;70.83;100451.72;5092639;27;70324;-35
2022/11/21 12:05:39;;;;;;;99.75;77.57;;;;;;;29.58;69.90;100320.41;5087363;27;65841;-34
2022/11/21 12:08:28;;;;;;;94.65;74.90;;;;;;;29.88;70.70;100373.78;5086228;27;69311;-36
2022/11/21 12:17:54;;;;;;;;;;;;;;;30.00;72.33;100466.59;5082810;27;66161;-35
2022/11/21 12:20:32;;;;;;;114.60;81.88;;;;;;;30.25;74.10;100477.41;5088304;27;69683;-39
2022/11/21 12:23:06;;;;;;;103.47;74.10;;;;;;;30.13;74.27;100474.59;5091992;27;65552;-39
2022/11/21 12:25:47;;;;;;;90.13;61.50;;;;;;;30.12;74.84;100488.34;5088572;27;69863;-35